sensor_id;sensor_type;location;lat;lon;timestamp;P1;durP1;ratioP1;P2;durP2;ratioP2
7045;SDS011;3564;53.326;10.356;2023-05-19T00:00:15;5.73;;;3.30;;
7045;SDS011;3564;53.326;10.356;2023-05-19T00:02:41;3.97;;;2.80;;
7045;SDS011;3564;53.326;10.356;2023-05-19T00:05:08;5.97;;;2.87;;
7045;SDS011;3564;53.326;10.356;2023-05-19T00:07:34;5.27;;;3.30;;
7045;SDS011;3564;53.326;10.356;2023-05-19T00:10:03;6.53;;;3.40;;
7045;SDS011;3564;53.326;10.356;2023-05-19T00:12:30;6.77;;;3.40;;
7045;SDS011;3564;53.326;10.356;2023-05-19T00:14:56;8.03;;;3.23;;
7045;SDS011;3564;53.326;10.356;2023-05-19T00:17:22;7.63;;;3.40;;
7045;SDS011;3564;53.326;10.356;2023-05-19T00:19:47;6.27;;;3.23;;
7045;SDS011;3564;53.326;10.356;2023-05-19T00:22:14;6.13;;;3.10;;
7045;SDS011;3564;53.326;10.356;2023-05-19T00:24:39;5.70;;;3.30;;
7045;SDS011;3564;53.326;10.356;2023-05-19T00:27:05;4.20;;;3.10;;
7045;SDS011;3564;53.326;10.356;2023-05-19T00:29:31;5.23;;;2.83;;
7045;SDS011;3564;53.326;10.356;2023-05-19T00:31:56;6.20;;;3.17;;
7045;SDS011;3564;53.326;10.356;2023-05-19T00:34:22;5.93;;;3.13;;
7045;SDS011;3564;53.326;10.356;2023-05-19T00:36:47;5.83;;;2.87;;
7045;SDS011;3564;53.326;10.356;2023-05-19T00:39:13;7.27;;;3.20;;
7045;SDS011;3564;53.326;10.356;2023-05-19T00:41:38;5.83;;;3.10;;
7045;SDS011;3564;53.326;10.356;2023-05-19T00:44:05;6.13;;;3.20;;
7045;SDS011;3564;53.326;10.356;2023-05-19T00:46:31;4.30;;;2.70;;
7045;SDS011;3564;53.326;10.356;2023-05-19T00:48:56;6.77;;;3.63;;
7045;SDS011;3564;53.326;10.356;2023-05-19T00:51:22;7.70;;;3.53;;
7045;SDS011;3564;53.326;10.356;2023-05-19T00:53:50;5.33;;;3.37;;
7045;SDS011;3564;53.326;10.356;2023-05-19T00:56:16;5.93;;;3.50;;
7045;SDS011;3564;53.326;10.356;2023-05-19T00:58:43;8.13;;;3.77;;
7045;SDS011;3564;53.326;10.356;2023-05-19T01:01:09;6.17;;;3.00;;
7045;SDS011;3564;53.326;10.356;2023-05-19T01:03:36;6.20;;;3.17;;
7045;SDS011;3564;53.326;10.356;2023-05-19T01:06:04;8.87;;;3.13;;
7045;SDS011;3564;53.326;10.356;2023-05-19T01:08:30;5.53;;;2.90;;
7045;SDS011;3564;53.326;10.356;2023-05-19T01:10:57;5.70;;;3.37;;
7045;SDS011;3564;53.326;10.356;2023-05-19T01:13:23;8.57;;;3.10;;
7045;SDS011;3564;53.326;10.356;2023-05-19T01:15:55;7.20;;;3.20;;
7045;SDS011;3564;53.326;10.356;2023-05-19T01:18:29;6.10;;;2.97;;
7045;SDS011;3564;53.326;10.356;2023-05-19T01:21:14;6.90;;;3.40;;
7045;SDS011;3564;53.326;10.356;2023-05-19T01:29:51;6.97;;;3.27;;
7045;SDS011;3564;53.326;10.356;2023-05-19T01:32:40;6.10;;;3.37;;
7045;SDS011;3564;53.326;10.356;2023-05-19T01:35:07;6.80;;;2.97;;
7045;SDS011;3564;53.326;10.356;2023-05-19T01:37:33;5.87;;;3.23;;
7045;SDS011;3564;53.326;10.356;2023-05-19T01:40:01;6.23;;;3.40;;
7045;SDS011;3564;53.326;10.356;2023-05-19T01:42:26;8.03;;;3.47;;
7045;SDS011;3564;53.326;10.356;2023-05-19T01:44:54;8.43;;;3.60;;
7045;SDS011;3564;53.326;10.356;2023-05-19T01:47:20;6.83;;;3.50;;
7045;SDS011;3564;53.326;10.356;2023-05-19T01:49:46;8.30;;;3.97;;
7045;SDS011;3564;53.326;10.356;2023-05-19T01:52:12;6.03;;;3.50;;
7045;SDS011;3564;53.326;10.356;2023-05-19T01:54:37;6.57;;;3.50;;
7045;SDS011;3564;53.326;10.356;2023-05-19T01:57:12;5.17;;;3.57;;
7045;SDS011;3564;53.326;10.356;2023-05-19T02:08:12;8.33;;;3.60;;
7045;SDS011;3564;53.326;10.356;2023-05-19T02:10:47;5.70;;;3.50;;
7045;SDS011;3564;53.326;10.356;2023-05-19T02:13:22;8.63;;;3.83;;
7045;SDS011;3564;53.326;10.356;2023-05-19T02:15:52;7.83;;;3.50;;
7045;SDS011;3564;53.326;10.356;2023-05-19T02:18:20;10.00;;;4.03;;
7045;SDS011;3564;53.326;10.356;2023-05-19T02:20:52;7.87;;;3.63;;
7045;SDS011;3564;53.326;10.356;2023-05-19T02:23:17;9.93;;;3.77;;
7045;SDS011;3564;53.326;10.356;2023-05-19T02:25:43;6.33;;;3.60;;
7045;SDS011;3564;53.326;10.356;2023-05-19T02:28:08;7.67;;;3.77;;
7045;SDS011;3564;53.326;10.356;2023-05-19T02:30:34;7.70;;;3.23;;
7045;SDS011;3564;53.326;10.356;2023-05-19T02:32:59;8.27;;;4.10;;
7045;SDS011;3564;53.326;10.356;2023-05-19T02:35:25;5.77;;;3.90;;
7045;SDS011;3564;53.326;10.356;2023-05-19T02:37:51;7.53;;;3.70;;
7045;SDS011;3564;53.326;10.356;2023-05-19T02:40:18;4.23;;;3.30;;
7045;SDS011;3564;53.326;10.356;2023-05-19T02:42:43;9.07;;;3.73;;
7045;SDS011;3564;53.326;10.356;2023-05-19T02:45:09;4.70;;;3.17;;
7045;SDS011;3564;53.326;10.356;2023-05-19T02:47:35;5.23;;;3.70;;
7045;SDS011;3564;53.326;10.356;2023-05-19T02:50:02;7.07;;;3.60;;
7045;SDS011;3564;53.326;10.356;2023-05-19T02:52:28;7.70;;;3.47;;
7045;SDS011;3564;53.326;10.356;2023-05-19T02:54:53;6.70;;;3.63;;
7045;SDS011;3564;53.326;10.356;2023-05-19T02:57:19;6.30;;;4.20;;
7045;SDS011;3564;53.326;10.356;2023-05-19T02:59:46;7.40;;;3.60;;
7045;SDS011;3564;53.326;10.356;2023-05-19T03:02:11;8.93;;;3.97;;
7045;SDS011;3564;53.326;10.356;2023-05-19T03:04:37;10.23;;;4.10;;
7045;SDS011;3564;53.326;10.356;2023-05-19T03:07:05;5.87;;;3.90;;
7045;SDS011;3564;53.326;10.356;2023-05-19T03:09:33;8.07;;;4.20;;
7045;SDS011;3564;53.326;10.356;2023-05-19T03:12:00;10.20;;;4.17;;
7045;SDS011;3564;53.326;10.356;2023-05-19T03:14:28;9.30;;;3.80;;
7045;SDS011;3564;53.326;10.356;2023-05-19T03:16:54;10.40;;;4.37;;
7045;SDS011;3564;53.326;10.356;2023-05-19T03:19:23;7.40;;;4.03;;
7045;SDS011;3564;53.326;10.356;2023-05-19T03:21:49;8.33;;;4.20;;
7045;SDS011;3564;53.326;10.356;2023-05-19T03:24:15;7.63;;;3.87;;
7045;SDS011;3564;53.326;10.356;2023-05-19T03:26:41;8.30;;;4.03;;
7045;SDS011;3564;53.326;10.356;2023-05-19T03:29:07;7.63;;;4.10;;
7045;SDS011;3564;53.326;10.356;2023-05-19T03:31:33;9.87;;;4.40;;
7045;SDS011;3564;53.326;10.356;2023-05-19T03:33:58;10.60;;;4.60;;
7045;SDS011;3564;53.326;10.356;2023-05-19T03:36:24;9.33;;;4.43;;
7045;SDS011;3564;53.326;10.356;2023-05-19T03:38:55;8.70;;;4.37;;
7045;SDS011;3564;53.326;10.356;2023-05-19T03:41:21;8.03;;;3.63;;
7045;SDS011;3564;53.326;10.356;2023-05-19T03:43:47;7.53;;;4.23;;
7045;SDS011;3564;53.326;10.356;2023-05-19T03:46:13;6.70;;;4.07;;
7045;SDS011;3564;53.326;10.356;2023-05-19T03:48:38;13.30;;;4.60;;
7045;SDS011;3564;53.326;10.356;2023-05-19T03:51:08;7.90;;;4.40;;
7045;SDS011;3564;53.326;10.356;2023-05-19T03:53:33;5.23;;;4.00;;
7045;SDS011;3564;53.326;10.356;2023-05-19T03:55:59;8.43;;;4.27;;
7045;SDS011;3564;53.326;10.356;2023-05-19T03:58:25;7.83;;;4.20;;
7045;SDS011;3564;53.326;10.356;2023-05-19T04:00:50;10.80;;;3.53;;
7045;SDS011;3564;53.326;10.356;2023-05-19T04:03:16;9.57;;;4.37;;
7045;SDS011;3564;53.326;10.356;2023-05-19T04:05:41;6.20;;;4.27;;
7045;SDS011;3564;53.326;10.356;2023-05-19T04:08:07;11.37;;;4.40;;
7045;SDS011;3564;53.326;10.356;2023-05-19T04:10:32;6.50;;;3.90;;
7045;SDS011;3564;53.326;10.356;2023-05-19T04:12:58;8.00;;;4.50;;
7045;SDS011;3564;53.326;10.356;2023-05-19T04:15:24;7.43;;;4.10;;
7045;SDS011;3564;53.326;10.356;2023-05-19T04:17:49;8.67;;;4.37;;
7045;SDS011;3564;53.326;10.356;2023-05-19T04:20:15;6.70;;;3.93;;
7045;SDS011;3564;53.326;10.356;2023-05-19T04:22:41;8.53;;;4.23;;
7045;SDS011;3564;53.326;10.356;2023-05-19T04:25:06;9.33;;;4.23;;
7045;SDS011;3564;53.326;10.356;2023-05-19T04:27:34;7.97;;;3.70;;
7045;SDS011;3564;53.326;10.356;2023-05-19T04:30:03;9.47;;;4.50;;
7045;SDS011;3564;53.326;10.356;2023-05-19T04:32:29;6.73;;;4.17;;
7045;SDS011;3564;53.326;10.356;2023-05-19T04:34:57;7.17;;;4.30;;
7045;SDS011;3564;53.326;10.356;2023-05-19T04:37:23;10.73;;;4.30;;
7045;SDS011;3564;53.326;10.356;2023-05-19T04:39:50;10.93;;;4.40;;
7045;SDS011;3564;53.326;10.356;2023-05-19T04:42:16;5.50;;;4.03;;
7045;SDS011;3564;53.326;10.356;2023-05-19T04:44:43;11.83;;;4.20;;
7045;SDS011;3564;53.326;10.356;2023-05-19T04:47:09;11.80;;;4.47;;
7045;SDS011;3564;53.326;10.356;2023-05-19T04:49:35;5.40;;;4.03;;
7045;SDS011;3564;53.326;10.356;2023-05-19T04:52:07;5.47;;;3.60;;
7045;SDS011;3564;53.326;10.356;2023-05-19T04:54:36;8.43;;;4.43;;
7045;SDS011;3564;53.326;10.356;2023-05-19T04:57:03;7.93;;;4.13;;
7045;SDS011;3564;53.326;10.356;2023-05-19T04:59:30;7.07;;;4.07;;
7045;SDS011;3564;53.326;10.356;2023-05-19T05:01:56;10.47;;;5.00;;
7045;SDS011;3564;53.326;10.356;2023-05-19T05:04:22;8.87;;;4.27;;
7045;SDS011;3564;53.326;10.356;2023-05-19T05:06:48;9.43;;;4.23;;
7045;SDS011;3564;53.326;10.356;2023-05-19T05:09:14;10.67;;;4.63;;
7045;SDS011;3564;53.326;10.356;2023-05-19T05:11:41;8.60;;;4.53;;
7045;SDS011;3564;53.326;10.356;2023-05-19T05:14:07;9.53;;;4.47;;
7045;SDS011;3564;53.326;10.356;2023-05-19T05:16:33;10.83;;;4.33;;
7045;SDS011;3564;53.326;10.356;2023-05-19T05:19:01;7.67;;;4.33;;
7045;SDS011;3564;53.326;10.356;2023-05-19T05:21:27;8.43;;;4.17;;
7045;SDS011;3564;53.326;10.356;2023-05-19T05:23:54;9.97;;;4.17;;
7045;SDS011;3564;53.326;10.356;2023-05-19T05:26:20;10.47;;;4.57;;
7045;SDS011;3564;53.326;10.356;2023-05-19T05:28:50;9.00;;;4.00;;
7045;SDS011;3564;53.326;10.356;2023-05-19T05:31:15;9.23;;;4.03;;
7045;SDS011;3564;53.326;10.356;2023-05-19T05:33:41;10.60;;;4.37;;
7045;SDS011;3564;53.326;10.356;2023-05-19T05:36:07;6.93;;;3.90;;
7045;SDS011;3564;53.326;10.356;2023-05-19T05:38:33;9.20;;;4.33;;
7045;SDS011;3564;53.326;10.356;2023-05-19T05:40:59;9.00;;;4.47;;
7045;SDS011;3564;53.326;10.356;2023-05-19T05:43:26;8.17;;;4.07;;
7045;SDS011;3564;53.326;10.356;2023-05-19T05:45:51;8.70;;;4.10;;
7045;SDS011;3564;53.326;10.356;2023-05-19T05:48:17;9.10;;;4.33;;
7045;SDS011;3564;53.326;10.356;2023-05-19T05:50:43;9.83;;;3.63;;
7045;SDS011;3564;53.326;10.356;2023-05-19T05:53:09;9.27;;;3.63;;
7045;SDS011;3564;53.326;10.356;2023-05-19T05:55:48;9.83;;;4.50;;
7045;SDS011;3564;53.326;10.356;2023-05-19T05:58:14;8.17;;;3.70;;
7045;SDS011;3564;53.326;10.356;2023-05-19T06:00:41;6.53;;;3.47;;
7045;SDS011;3564;53.326;10.356;2023-05-19T06:03:08;9.10;;;3.87;;
7045;SDS011;3564;53.326;10.356;2023-05-19T06:05:35;6.23;;;3.70;;
7045;SDS011;3564;53.326;10.356;2023-05-19T06:08:01;9.57;;;3.33;;
7045;SDS011;3564;53.326;10.356;2023-05-19T06:10:27;7.00;;;3.33;;
7045;SDS011;3564;53.326;10.356;2023-05-19T06:12:53;9.77;;;3.57;;
7045;SDS011;3564;53.326;10.356;2023-05-19T06:15:19;9.00;;;3.70;;
7045;SDS011;3564;53.326;10.356;2023-05-19T06:17:46;5.87;;;3.20;;
7045;SDS011;3564;53.326;10.356;2023-05-19T06:20:12;9.20;;;3.30;;
7045;SDS011;3564;53.326;10.356;2023-05-19T06:22:38;6.73;;;3.10;;
7045;SDS011;3564;53.326;10.356;2023-05-19T06:25:04;7.57;;;3.00;;
7045;SDS011;3564;53.326;10.356;2023-05-19T06:27:30;10.93;;;3.60;;
7045;SDS011;3564;53.326;10.356;2023-05-19T06:29:56;6.73;;;2.77;;
7045;SDS011;3564;53.326;10.356;2023-05-19T06:32:22;7.50;;;2.77;;
7045;SDS011;3564;53.326;10.356;2023-05-19T06:34:48;6.00;;;2.90;;
7045;SDS011;3564;53.326;10.356;2023-05-19T06:37:21;8.40;;;3.13;;
7045;SDS011;3564;53.326;10.356;2023-05-19T06:39:51;7.07;;;2.60;;
7045;SDS011;3564;53.326;10.356;2023-05-19T06:42:18;6.30;;;2.30;;
7045;SDS011;3564;53.326;10.356;2023-05-19T06:44:51;5.03;;;2.43;;
7045;SDS011;3564;53.326;10.356;2023-05-19T06:47:17;6.30;;;2.50;;
7045;SDS011;3564;53.326;10.356;2023-05-19T06:49:43;5.77;;;2.30;;
7045;SDS011;3564;53.326;10.356;2023-05-19T06:52:10;4.73;;;2.20;;
7045;SDS011;3564;53.326;10.356;2023-05-19T06:54:36;3.80;;;2.20;;
7045;SDS011;3564;53.326;10.356;2023-05-19T06:57:01;6.30;;;2.70;;
7045;SDS011;3564;53.326;10.356;2023-05-19T06:59:28;6.13;;;2.20;;
7045;SDS011;3564;53.326;10.356;2023-05-19T07:01:53;8.37;;;3.10;;
7045;SDS011;3564;53.326;10.356;2023-05-19T07:04:19;5.67;;;2.20;;
7045;SDS011;3564;53.326;10.356;2023-05-19T07:06:44;8.20;;;2.87;;
7045;SDS011;3564;53.326;10.356;2023-05-19T07:09:10;7.33;;;2.27;;
7045;SDS011;3564;53.326;10.356;2023-05-19T07:11:35;5.90;;;1.93;;
7045;SDS011;3564;53.326;10.356;2023-05-19T07:14:01;6.23;;;2.50;;
7045;SDS011;3564;53.326;10.356;2023-05-19T07:16:27;6.23;;;2.63;;
7045;SDS011;3564;53.326;10.356;2023-05-19T07:18:52;3.87;;;2.00;;
7045;SDS011;3564;53.326;10.356;2023-05-19T07:21:18;8.03;;;2.37;;
7045;SDS011;3564;53.326;10.356;2023-05-19T07:23:43;3.47;;;1.87;;
7045;SDS011;3564;53.326;10.356;2023-05-19T07:26:10;5.73;;;2.10;;
7045;SDS011;3564;53.326;10.356;2023-05-19T07:28:35;5.93;;;2.00;;
7045;SDS011;3564;53.326;10.356;2023-05-19T07:31:01;4.03;;;2.00;;
7045;SDS011;3564;53.326;10.356;2023-05-19T07:33:27;4.33;;;1.80;;
7045;SDS011;3564;53.326;10.356;2023-05-19T07:35:53;7.50;;;2.23;;
7045;SDS011;3564;53.326;10.356;2023-05-19T07:38:18;6.20;;;2.40;;
7045;SDS011;3564;53.326;10.356;2023-05-19T07:40:44;3.70;;;2.03;;
7045;SDS011;3564;53.326;10.356;2023-05-19T07:43:09;6.53;;;2.50;;
7045;SDS011;3564;53.326;10.356;2023-05-19T07:45:37;4.40;;;2.10;;
7045;SDS011;3564;53.326;10.356;2023-05-19T07:48:02;3.97;;;1.97;;
7045;SDS011;3564;53.326;10.356;2023-05-19T07:50:28;4.00;;;2.00;;
7045;SDS011;3564;53.326;10.356;2023-05-19T07:52:54;7.53;;;2.20;;
7045;SDS011;3564;53.326;10.356;2023-05-19T07:55:19;4.93;;;2.20;;
7045;SDS011;3564;53.326;10.356;2023-05-19T07:57:47;7.97;;;2.70;;
7045;SDS011;3564;53.326;10.356;2023-05-19T08:00:13;7.50;;;2.07;;
7045;SDS011;3564;53.326;10.356;2023-05-19T08:02:39;4.03;;;1.90;;
7045;SDS011;3564;53.326;10.356;2023-05-19T08:05:05;6.23;;;2.40;;
7045;SDS011;3564;53.326;10.356;2023-05-19T08:07:33;4.17;;;2.17;;
7045;SDS011;3564;53.326;10.356;2023-05-19T08:09:59;5.20;;;2.10;;
7045;SDS011;3564;53.326;10.356;2023-05-19T08:12:24;5.50;;;2.13;;
7045;SDS011;3564;53.326;10.356;2023-05-19T08:14:50;3.20;;;1.90;;
7045;SDS011;3564;53.326;10.356;2023-05-19T08:17:16;8.33;;;2.10;;
7045;SDS011;3564;53.326;10.356;2023-05-19T08:19:42;4.07;;;2.00;;
7045;SDS011;3564;53.326;10.356;2023-05-19T08:22:07;5.20;;;2.07;;
7045;SDS011;3564;53.326;10.356;2023-05-19T08:24:33;4.67;;;1.97;;
7045;SDS011;3564;53.326;10.356;2023-05-19T08:27:00;4.63;;;1.83;;
7045;SDS011;3564;53.326;10.356;2023-05-19T08:29:25;4.13;;;1.70;;
7045;SDS011;3564;53.326;10.356;2023-05-19T08:31:51;4.80;;;2.00;;
7045;SDS011;3564;53.326;10.356;2023-05-19T08:34:17;2.97;;;1.90;;
7045;SDS011;3564;53.326;10.356;2023-05-19T08:36:43;4.33;;;1.90;;
7045;SDS011;3564;53.326;10.356;2023-05-19T08:39:12;3.97;;;1.87;;
7045;SDS011;3564;53.326;10.356;2023-05-19T08:41:38;3.10;;;1.80;;
7045;SDS011;3564;53.326;10.356;2023-05-19T08:44:04;4.00;;;1.90;;
7045;SDS011;3564;53.326;10.356;2023-05-19T08:46:29;4.53;;;1.93;;
7045;SDS011;3564;53.326;10.356;2023-05-19T08:49:03;5.60;;;1.80;;
7045;SDS011;3564;53.326;10.356;2023-05-19T08:54:14;5.13;;;2.03;;
7045;SDS011;3564;53.326;10.356;2023-05-19T08:56:42;5.07;;;1.90;;
7045;SDS011;3564;53.326;10.356;2023-05-19T08:59:09;4.57;;;2.13;;
7045;SDS011;3564;53.326;10.356;2023-05-19T09:01:35;3.40;;;1.80;;
7045;SDS011;3564;53.326;10.356;2023-05-19T09:04:01;2.73;;;1.73;;
7045;SDS011;3564;53.326;10.356;2023-05-19T09:06:28;4.97;;;1.87;;
7045;SDS011;3564;53.326;10.356;2023-05-19T09:08:56;4.00;;;2.13;;
7045;SDS011;3564;53.326;10.356;2023-05-19T09:11:21;3.07;;;2.17;;
7045;SDS011;3564;53.326;10.356;2023-05-19T09:13:47;2.63;;;1.70;;
7045;SDS011;3564;53.326;10.356;2023-05-19T09:16:13;8.10;;;2.40;;
7045;SDS011;3564;53.326;10.356;2023-05-19T09:18:42;4.33;;;2.40;;
7045;SDS011;3564;53.326;10.356;2023-05-19T09:21:25;6.30;;;2.00;;
7045;SDS011;3564;53.326;10.356;2023-05-19T09:23:55;5.13;;;2.27;;
7045;SDS011;3564;53.326;10.356;2023-05-19T09:26:41;4.27;;;1.90;;
7045;SDS011;3564;53.326;10.356;2023-05-19T09:29:11;3.80;;;1.97;;
7045;SDS011;3564;53.326;10.356;2023-05-19T09:31:37;3.53;;;2.00;;
7045;SDS011;3564;53.326;10.356;2023-05-19T09:34:03;4.17;;;1.97;;
7045;SDS011;3564;53.326;10.356;2023-05-19T09:36:29;3.73;;;2.00;;
7045;SDS011;3564;53.326;10.356;2023-05-19T09:38:55;4.70;;;1.93;;
7045;SDS011;3564;53.326;10.356;2023-05-19T09:41:20;3.80;;;1.83;;
7045;SDS011;3564;53.326;10.356;2023-05-19T09:43:53;3.10;;;1.70;;
7045;SDS011;3564;53.326;10.356;2023-05-19T09:46:23;3.40;;;1.70;;
7045;SDS011;3564;53.326;10.356;2023-05-19T09:48:56;2.90;;;1.70;;
7045;SDS011;3564;53.326;10.356;2023-05-19T09:51:23;6.37;;;2.00;;
7045;SDS011;3564;53.326;10.356;2023-05-19T09:53:49;6.43;;;1.87;;
7045;SDS011;3564;53.326;10.356;2023-05-19T09:56:15;4.20;;;1.73;;
7045;SDS011;3564;53.326;10.356;2023-05-19T09:58:41;2.60;;;1.60;;
7045;SDS011;3564;53.326;10.356;2023-05-19T10:01:07;4.17;;;2.00;;
7045;SDS011;3564;53.326;10.356;2023-05-19T10:03:34;4.73;;;2.00;;
7045;SDS011;3564;53.326;10.356;2023-05-19T10:06:00;3.53;;;1.50;;
7045;SDS011;3564;53.326;10.356;2023-05-19T10:08:28;5.03;;;1.97;;
7045;SDS011;3564;53.326;10.356;2023-05-19T10:10:54;4.80;;;2.20;;
7045;SDS011;3564;53.326;10.356;2023-05-19T10:13:21;6.13;;;1.90;;
7045;SDS011;3564;53.326;10.356;2023-05-19T10:15:48;2.87;;;1.90;;
7045;SDS011;3564;53.326;10.356;2023-05-19T10:18:16;3.63;;;1.80;;
7045;SDS011;3564;53.326;10.356;2023-05-19T10:20:42;3.17;;;1.80;;
7045;SDS011;3564;53.326;10.356;2023-05-19T10:23:08;6.70;;;2.07;;
7045;SDS011;3564;53.326;10.356;2023-05-19T10:25:34;4.43;;;2.03;;
7045;SDS011;3564;53.326;10.356;2023-05-19T10:28:06;6.57;;;2.00;;
7045;SDS011;3564;53.326;10.356;2023-05-19T10:30:41;4.67;;;1.87;;
7045;SDS011;3564;53.326;10.356;2023-05-19T10:33:11;3.97;;;1.93;;
7045;SDS011;3564;53.326;10.356;2023-05-19T10:38:36;3.57;;;2.17;;
7045;SDS011;3564;53.326;10.356;2023-05-19T10:41:11;5.30;;;1.90;;
7045;SDS011;3564;53.326;10.356;2023-05-19T10:46:43;3.07;;;1.80;;
7045;SDS011;3564;53.326;10.356;2023-05-19T10:49:09;5.40;;;2.13;;
7045;SDS011;3564;53.326;10.356;2023-05-19T10:51:44;4.67;;;1.80;;
7045;SDS011;3564;53.326;10.356;2023-05-19T10:54:09;3.93;;;1.60;;
7045;SDS011;3564;53.326;10.356;2023-05-19T10:56:38;4.00;;;1.77;;
7045;SDS011;3564;53.326;10.356;2023-05-19T10:59:06;3.67;;;1.73;;
7045;SDS011;3564;53.326;10.356;2023-05-19T11:01:34;4.97;;;2.10;;
7045;SDS011;3564;53.326;10.356;2023-05-19T11:04:06;4.33;;;1.90;;
7045;SDS011;3564;53.326;10.356;2023-05-19T11:06:36;4.30;;;1.77;;
7045;SDS011;3564;53.326;10.356;2023-05-19T11:09:11;3.30;;;1.63;;
7045;SDS011;3564;53.326;10.356;2023-05-19T11:11:48;1.80;;;1.57;;
7045;SDS011;3564;53.326;10.356;2023-05-19T11:14:22;4.50;;;1.77;;
7045;SDS011;3564;53.326;10.356;2023-05-19T11:16:51;3.37;;;1.50;;
7045;SDS011;3564;53.326;10.356;2023-05-19T11:19:30;4.33;;;1.93;;
7045;SDS011;3564;53.326;10.356;2023-05-19T11:22:10;4.27;;;1.73;;
7045;SDS011;3564;53.326;10.356;2023-05-19T11:24:47;4.30;;;1.80;;
7045;SDS011;3564;53.326;10.356;2023-05-19T11:27:24;4.30;;;1.93;;
7045;SDS011;3564;53.326;10.356;2023-05-19T11:32:33;4.03;;;1.60;;
7045;SDS011;3564;53.326;10.356;2023-05-19T11:35:00;4.17;;;1.70;;
7045;SDS011;3564;53.326;10.356;2023-05-19T11:37:26;3.40;;;1.90;;
7045;SDS011;3564;53.326;10.356;2023-05-19T11:39:55;3.83;;;1.67;;
7045;SDS011;3564;53.326;10.356;2023-05-19T11:42:25;3.70;;;1.70;;
7045;SDS011;3564;53.326;10.356;2023-05-19T11:44:53;4.20;;;1.87;;
7045;SDS011;3564;53.326;10.356;2023-05-19T11:47:19;3.70;;;2.00;;
7045;SDS011;3564;53.326;10.356;2023-05-19T11:49:49;3.63;;;1.97;;
7045;SDS011;3564;53.326;10.356;2023-05-19T11:52:21;4.80;;;1.97;;
7045;SDS011;3564;53.326;10.356;2023-05-19T11:54:48;3.40;;;1.70;;
7045;SDS011;3564;53.326;10.356;2023-05-19T11:57:14;6.17;;;1.87;;
7045;SDS011;3564;53.326;10.356;2023-05-19T11:59:40;1.53;;;1.43;;
7045;SDS011;3564;53.326;10.356;2023-05-19T12:02:16;3.50;;;1.63;;
7045;SDS011;3564;53.326;10.356;2023-05-19T12:04:50;6.17;;;2.10;;
7045;SDS011;3564;53.326;10.356;2023-05-19T12:07:16;4.00;;;2.00;;
7045;SDS011;3564;53.326;10.356;2023-05-19T12:09:46;3.70;;;2.00;;
7045;SDS011;3564;53.326;10.356;2023-05-19T12:12:13;9.57;;;2.50;;
7045;SDS011;3564;53.326;10.356;2023-05-19T12:14:45;2.70;;;1.60;;
7045;SDS011;3564;53.326;10.356;2023-05-19T12:17:14;3.00;;;1.57;;
7045;SDS011;3564;53.326;10.356;2023-05-19T12:19:45;4.50;;;1.80;;
7045;SDS011;3564;53.326;10.356;2023-05-19T12:22:12;4.43;;;1.93;;
7045;SDS011;3564;53.326;10.356;2023-05-19T12:24:39;3.43;;;1.77;;
7045;SDS011;3564;53.326;10.356;2023-05-19T12:27:10;3.30;;;1.67;;
7045;SDS011;3564;53.326;10.356;2023-05-19T12:29:38;3.67;;;1.90;;
7045;SDS011;3564;53.326;10.356;2023-05-19T12:32:08;3.97;;;1.80;;
7045;SDS011;3564;53.326;10.356;2023-05-19T12:34:34;3.53;;;1.60;;
7045;SDS011;3564;53.326;10.356;2023-05-19T12:37:02;6.13;;;2.23;;
7045;SDS011;3564;53.326;10.356;2023-05-19T12:39:28;8.30;;;2.37;;
7045;SDS011;3564;53.326;10.356;2023-05-19T12:42:06;6.27;;;2.00;;
7045;SDS011;3564;53.326;10.356;2023-05-19T12:44:43;8.07;;;2.10;;
7045;SDS011;3564;53.326;10.356;2023-05-19T12:47:14;4.23;;;1.73;;
7045;SDS011;3564;53.326;10.356;2023-05-19T12:49:53;5.57;;;1.90;;
7045;SDS011;3564;53.326;10.356;2023-05-19T12:52:24;3.10;;;1.90;;
7045;SDS011;3564;53.326;10.356;2023-05-19T12:55:01;3.70;;;2.00;;
7045;SDS011;3564;53.326;10.356;2023-05-19T12:57:34;2.67;;;1.70;;
7045;SDS011;3564;53.326;10.356;2023-05-19T13:00:04;4.30;;;1.90;;
7045;SDS011;3564;53.326;10.356;2023-05-19T13:02:57;3.87;;;2.00;;
7045;SDS011;3564;53.326;10.356;2023-05-19T13:05:29;3.53;;;2.17;;
7045;SDS011;3564;53.326;10.356;2023-05-19T13:08:04;4.70;;;1.70;;
7045;SDS011;3564;53.326;10.356;2023-05-19T13:10:40;4.70;;;1.90;;
7045;SDS011;3564;53.326;10.356;2023-05-19T13:13:07;2.90;;;1.70;;
7045;SDS011;3564;53.326;10.356;2023-05-19T13:15:35;3.27;;;1.90;;
7045;SDS011;3564;53.326;10.356;2023-05-19T13:18:03;2.97;;;1.57;;
7045;SDS011;3564;53.326;10.356;2023-05-19T13:20:30;5.50;;;2.13;;
7045;SDS011;3564;53.326;10.356;2023-05-19T13:22:57;3.93;;;1.90;;
7045;SDS011;3564;53.326;10.356;2023-05-19T13:25:23;3.33;;;1.73;;
7045;SDS011;3564;53.326;10.356;2023-05-19T13:27:50;6.20;;;1.90;;
7045;SDS011;3564;53.326;10.356;2023-05-19T13:30:16;3.97;;;2.00;;
7045;SDS011;3564;53.326;10.356;2023-05-19T13:32:42;4.50;;;1.70;;
7045;SDS011;3564;53.326;10.356;2023-05-19T13:35:09;5.37;;;2.20;;
7045;SDS011;3564;53.326;10.356;2023-05-19T13:37:36;4.07;;;1.93;;
7045;SDS011;3564;53.326;10.356;2023-05-19T13:40:03;3.37;;;1.97;;
7045;SDS011;3564;53.326;10.356;2023-05-19T13:42:30;5.00;;;2.07;;
7045;SDS011;3564;53.326;10.356;2023-05-19T13:44:56;3.40;;;1.90;;
7045;SDS011;3564;53.326;10.356;2023-05-19T13:47:22;2.77;;;1.83;;
7045;SDS011;3564;53.326;10.356;2023-05-19T13:49:47;3.83;;;1.80;;
7045;SDS011;3564;53.326;10.356;2023-05-19T13:52:13;5.03;;;1.80;;
7045;SDS011;3564;53.326;10.356;2023-05-19T13:54:39;6.30;;;1.73;;
7045;SDS011;3564;53.326;10.356;2023-05-19T13:57:05;3.20;;;1.87;;
7045;SDS011;3564;53.326;10.356;2023-05-19T13:59:30;3.87;;;2.00;;
7045;SDS011;3564;53.326;10.356;2023-05-19T14:01:56;4.97;;;2.07;;
7045;SDS011;3564;53.326;10.356;2023-05-19T14:04:22;4.87;;;1.80;;
7045;SDS011;3564;53.326;10.356;2023-05-19T14:06:48;4.87;;;1.90;;
7045;SDS011;3564;53.326;10.356;2023-05-19T14:09:14;2.93;;;2.00;;
7045;SDS011;3564;53.326;10.356;2023-05-19T14:11:40;2.60;;;1.80;;
7045;SDS011;3564;53.326;10.356;2023-05-19T14:14:06;3.60;;;1.80;;
7045;SDS011;3564;53.326;10.356;2023-05-19T14:16:32;8.37;;;2.27;;
7045;SDS011;3564;53.326;10.356;2023-05-19T14:18:58;3.33;;;1.90;;
7045;SDS011;3564;53.326;10.356;2023-05-19T14:21:23;2.87;;;1.90;;
7045;SDS011;3564;53.326;10.356;2023-05-19T14:23:49;4.70;;;2.10;;
7045;SDS011;3564;53.326;10.356;2023-05-19T14:26:15;3.97;;;2.13;;
7045;SDS011;3564;53.326;10.356;2023-05-19T14:28:40;3.67;;;2.03;;
7045;SDS011;3564;53.326;10.356;2023-05-19T14:31:12;4.57;;;1.60;;
7045;SDS011;3564;53.326;10.356;2023-05-19T14:33:38;5.17;;;1.70;;
7045;SDS011;3564;53.326;10.356;2023-05-19T14:36:04;5.13;;;2.17;;
7045;SDS011;3564;53.326;10.356;2023-05-19T14:38:31;4.87;;;1.70;;
7045;SDS011;3564;53.326;10.356;2023-05-19T14:40:56;6.07;;;1.87;;
7045;SDS011;3564;53.326;10.356;2023-05-19T14:43:22;8.33;;;2.10;;
7045;SDS011;3564;53.326;10.356;2023-05-19T14:45:47;5.00;;;2.50;;
7045;SDS011;3564;53.326;10.356;2023-05-19T14:48:13;5.27;;;1.90;;
7045;SDS011;3564;53.326;10.356;2023-05-19T14:50:39;4.03;;;1.90;;
7045;SDS011;3564;53.326;10.356;2023-05-19T14:53:05;5.90;;;1.97;;
7045;SDS011;3564;53.326;10.356;2023-05-19T14:55:31;3.27;;;1.90;;
7045;SDS011;3564;53.326;10.356;2023-05-19T14:57:56;4.23;;;2.03;;
7045;SDS011;3564;53.326;10.356;2023-05-19T15:00:22;7.37;;;2.17;;
7045;SDS011;3564;53.326;10.356;2023-05-19T15:02:50;4.57;;;2.13;;
7045;SDS011;3564;53.326;10.356;2023-05-19T15:05:16;5.87;;;2.33;;
7045;SDS011;3564;53.326;10.356;2023-05-19T15:07:43;3.77;;;2.20;;
7045;SDS011;3564;53.326;10.356;2023-05-19T15:10:09;5.87;;;1.87;;
7045;SDS011;3564;53.326;10.356;2023-05-19T15:12:35;7.33;;;2.10;;
7045;SDS011;3564;53.326;10.356;2023-05-19T15:15:00;4.40;;;2.17;;
7045;SDS011;3564;53.326;10.356;2023-05-19T15:17:26;4.87;;;2.00;;
7045;SDS011;3564;53.326;10.356;2023-05-19T15:19:52;5.30;;;2.30;;
7045;SDS011;3564;53.326;10.356;2023-05-19T15:22:17;6.57;;;2.13;;
7045;SDS011;3564;53.326;10.356;2023-05-19T15:24:43;5.10;;;1.80;;
7045;SDS011;3564;53.326;10.356;2023-05-19T15:27:08;6.00;;;2.20;;